Aérodrome :
LOGIN :

S'inscrire | Disclaimer

   EN    FR    IT 

 










Légende :    VFR   VFR Marginal   IFR   IFR Intensif   IFR Très Intensif
Visi : 
Plafond : 
>= 8 km
>= 3000ft
5 à 8 km
1000 à 3000 ft
1500m à 5 km
500 à 1000 ft
800 à 1500m
200 à 500 ft
< 800m
< 200 ft
Symboles :   Orages  Brouillard  Fortes neiges  Fortes précipitations  Vent > 20 kt
SIGMETs :   Divers  Orages  Givrage  Turbulence  Onde Orograph.  Cendres Volcan.






- Altitude de l'aérodrome : 46 ft
- Code IATA : SNN


EINN - Shannon

DERNIER METAR :
  • 092000Z 13009KT CAVOK 06/04 Q1019 NOSIG

METARs EXPIRÉS :
  • 091930Z 13009KT CAVOK 06/04 Q1019 NOSIG
  • 091900Z 15009KT CAVOK 06/04 Q1020 NOSIG
  • 091830Z 15008KT CAVOK 06/04 Q1020 NOSIG
  • 091800Z 17008KT CAVOK 07/04 Q1020 NOSIG
  • 091730Z 19009KT CAVOK 07/04 Q1021 NOSIG

TAF TAF EINN
Valide du 09 à 18h jusqu'au 10 à 18h UTC


091700Z 0918/1018 17008KT 9999 FEW020
BECMG 0919/0921 15013KT
BECMG 0921/0924 16017G27KT
BECMG 1000/1002 17020G32KT -RA SCT010 BKN015
TEMPO 1003/1013 5000 RA BKN010
PROB40
TEMPO 1003/1013 3000 RADZ BKN006
TEMPO 1007/1011 20024G37KT
BECMG 1011/1013 28024G42KT FEW015 SCT025
BECMG 1013/1015 27020G32KT
TEMPO 1013/1018 4000 SHRA BKN014 SCT018CB



MET'MAP, la Météo Aéronautique d'un coup d'oeil ! - Copyright ORBIFLY Décembre 2007 - Disclaimer

ORBIFLY MET'MAP TEAM :

Programmation & Développement : Alexandra Zaïnal
Sur une idée originale de : Baudouin d'Aumeries
Assistance à la programmation : Marc-Olivier Méhu
Soutien technique & logistique : Manuel Goepfert

Contact : metmap@orbifly.com




SOURCES & CREDITS :

   NOAA